Time;durP1;ratioP1;P1;durP2;ratioP2;P2;SDS_P1;SDS_P2;PMS_P1;PMS_P2;Temp;Humidity;BMP_temperature;BMP_pressure;BME280_temperature;BME280_humidity;BME280_pressure;Samples;Min_cycle;Max_cycle;Signal;HPM_P1;HPM_P2
2023/12/14 00:00:25;;;;;;;9.95;2.80;;;10.10;99.90;;;;;;4267095;27;20065;-65
2023/12/14 00:02:27;;;;;;;10.98;3.70;;;10.00;99.90;;;;;;4266728;27;20413;-65
2023/12/14 00:04:29;;;;;;;8.57;2.70;;;10.00;99.90;;;;;;4266534;27;20516;-65
2023/12/14 00:06:31;;;;;;;9.52;2.20;;;10.00;99.90;;;;;;4266523;27;20068;-65
2023/12/14 00:08:33;;;;;;;10.82;2.17;;;10.00;99.90;;;;;;4247895;27;20529;-66
2023/12/14 00:10:35;;;;;;;10.50;2.47;;;10.00;99.90;;;;;;4248195;27;20097;-65
2023/12/14 00:12:37;;;;;;;4.32;1.90;;;10.00;99.90;;;;;;4266625;27;20130;-65
2023/12/14 00:14:40;;;;;;;7.53;2.05;;;10.00;99.90;;;;;;4266637;27;20397;-65
2023/12/14 00:16:42;;;;;;;6.72;2.10;;;10.00;99.90;;;;;;4265911;27;20051;-65
2023/12/14 00:18:45;;;;;;;8.13;2.08;;;10.00;99.90;;;;;;4266196;27;20117;-64
2023/12/14 00:20:48;;;;;;;8.77;2.08;;;10.10;99.90;;;;;;4266324;27;20057;-65
2023/12/14 00:22:50;;;;;;;6.60;1.95;;;10.00;99.90;;;;;;4265934;27;20043;-66
2023/12/14 00:24:52;;;;;;;6.45;1.60;;;10.00;99.90;;;;;;4266191;27;20051;-63
2023/12/14 00:26:54;;;;;;;4.90;1.60;;;10.00;99.90;;;;;;4247887;27;20134;-64
2023/12/14 00:28:56;;;;;;;6.85;2.10;;;10.00;99.90;;;;;;4266325;27;20047;-65
2023/12/14 00:31:04;;;;;;;5.28;1.90;;;10.00;99.90;;;;;;4266344;27;20043;-65
2023/12/14 00:33:07;;;;;;;9.50;1.80;;;9.90;99.90;;;;;;4247743;27;20424;-68
2023/12/14 00:35:09;;;;;;;5.28;1.30;;;9.90;99.90;;;;;;4266783;27;20125;-65
2023/12/14 00:37:11;;;;;;;8.38;2.60;;;9.90;99.90;;;;;;4265774;27;20100;-65
2023/12/14 00:39:13;;;;;;;5.10;1.60;;;9.90;99.90;;;;;;4265988;27;20043;-65
2023/12/14 00:41:15;;;;;;;7.05;1.90;;;9.90;99.90;;;;;;4266007;27;20046;-65
2023/12/14 00:43:17;;;;;;;12.98;3.03;;;9.90;99.90;;;;;;4265921;27;20043;-65
2023/12/14 00:45:19;;;;;;;8.23;2.33;;;9.80;99.90;;;;;;4265879;27;20063;-64
2023/12/14 00:47:23;;;;;;;12.57;2.45;;;9.80;99.90;;;;;;4265864;27;20053;-65
2023/12/14 00:49:27;;;;;;;8.90;2.35;;;9.80;99.90;;;;;;4265907;27;20049;-65
2023/12/14 00:51:30;;;;;;;10.77;2.17;;;9.70;99.90;;;;;;4265663;27;20065;-65
2023/12/14 00:53:32;;;;;;;6.00;1.60;;;9.70;99.90;;;;;;4266023;27;20132;-65
2023/12/14 00:55:34;;;;;;;5.93;1.90;;;9.60;99.90;;;;;;4266052;27;20450;-65
2023/12/14 00:57:36;;;;;;;4.85;1.40;;;9.60;99.90;;;;;;4265915;27;20047;-65
2023/12/14 00:59:38;;;;;;;10.23;2.15;;;9.50;99.90;;;;;;4265937;27;20043;-65
2023/12/14 01:01:40;;;;;;;4.13;1.40;;;9.60;99.90;;;;;;4266868;27;20543;-67
2023/12/14 01:03:44;;;;;;;3.97;1.60;;;9.60;99.90;;;;;;4266765;27;20054;-64
2023/12/14 01:05:46;;;;;;;3.95;1.20;;;9.60;99.90;;;;;;4265592;27;20477;-66
2023/12/14 01:07:48;;;;;;;7.47;1.58;;;9.50;99.90;;;;;;4265327;27;20050;-66
2023/12/14 01:09:50;;;;;;;7.43;1.52;;;9.50;99.90;;;;;;4265563;27;20042;-65
2023/12/14 01:11:52;;;;;;;3.13;1.27;;;9.50;99.90;;;;;;4247179;27;20051;-65
2023/12/14 01:13:54;;;;;;;4.20;1.08;;;9.50;99.90;;;;;;4266510;27;20059;-69
2023/12/14 01:15:56;;;;;;;6.20;1.30;;;9.50;99.90;;;;;;4265504;27;20116;-65
2023/12/14 01:17:58;;;;;;;5.50;1.52;;;9.50;99.90;;;;;;4265306;27;20414;-65
2023/12/14 01:20:04;;;;;;;5.43;1.30;;;9.50;99.90;;;;;;4265590;27;20058;-65
2023/12/14 01:22:06;;;;;;;7.15;1.30;;;9.50;99.90;;;;;;4265319;27;20047;-65
2023/12/14 01:24:08;;;;;;;5.53;1.50;;;9.40;99.90;;;;;;4265379;27;20051;-65
2023/12/14 01:26:10;;;;;;;4.72;1.30;;;9.40;99.90;;;;;;4265301;27;20133;-65
2023/12/14 01:28:13;;;;;;;6.75;1.75;;;9.40;99.90;;;;;;4265108;27;20207;-65
2023/12/14 01:30:16;;;;;;;5.80;1.35;;;9.40;99.90;;;;;;4265384;27;20043;-65
2023/12/14 01:32:19;;;;;;;8.02;1.25;;;9.40;99.90;;;;;;4265018;27;20070;-65
2023/12/14 01:34:21;;;;;;;5.43;1.17;;;9.40;99.90;;;;;;4265151;27;20038;-65
2023/12/14 01:36:25;;;;;;;3.42;1.00;;;9.40;99.90;;;;;;4264824;27;20054;-65
2023/12/14 01:38:27;;;;;;;;;;;9.30;99.90;;;;;;4265753;27;20046;-65
2023/12/14 01:40:29;;;;;;;5.38;1.30;;;9.30;99.90;;;;;;4265271;27;20065;-65
2023/12/14 01:42:32;;;;;;;2.63;1.30;;;9.20;99.90;;;;;;4265167;27;20513;-65
2023/12/14 01:44:34;;;;;;;5.10;1.58;;;9.20;99.90;;;;;;4264886;27;20043;-65
2023/12/14 01:46:36;;;;;;;3.92;1.33;;;9.30;99.90;;;;;;4229688;28;20051;-65
2023/12/14 01:48:39;;;;;;;4.60;1.00;;;9.30;99.90;;;;;;4264982;27;20050;-65
2023/12/14 01:50:41;;;;;;;4.38;1.17;;;9.20;99.90;;;;;;4264585;27;20035;-65
2023/12/14 01:52:45;;;;;;;8.38;1.30;;;9.30;99.90;;;;;;4264929;27;20581;-64
2023/12/14 01:54:47;;;;;;;2.92;0.93;;;9.30;99.90;;;;;;4264779;27;20065;-65
2023/12/14 01:56:49;;;;;;;5.10;1.65;;;9.30;99.90;;;;;;4264895;27;20038;-69
2023/12/14 01:58:51;;;;;;;3.05;1.27;;;9.20;99.90;;;;;;4264735;27;20082;-65
2023/12/14 02:01:02;;;;;;;2.42;1.00;;;9.30;99.90;;;;;;4264312;27;20046;-64
2023/12/14 02:03:04;;;;;;;4.05;0.95;;;9.30;99.90;;;;;;4265193;27;20480;-65
2023/12/14 02:05:06;;;;;;;2.75;1.10;;;9.30;99.90;;;;;;4264332;27;20106;-66
2023/12/14 02:07:08;;;;;;;3.17;1.08;;;9.20;99.90;;;;;;4264530;27;20038;-65
2023/12/14 02:09:12;;;;;;;2.40;0.90;;;9.20;99.90;;;;;;4264590;27;20119;-65
2023/12/14 02:11:14;;;;;;;5.35;1.65;;;9.10;99.90;;;;;;4264680;27;20047;-65
2023/12/14 02:13:16;;;;;;;22.50;1.27;;;9.10;99.90;;;;;;4264582;27;20065;-64
2023/12/14 02:15:18;;;;;;;3.05;1.05;;;9.10;99.90;;;;;;4264659;27;20170;-65
2023/12/14 02:17:21;;;;;;;5.35;1.02;;;9.10;99.90;;;;;;4264339;27;20042;-65
2023/12/14 02:19:23;;;;;;;3.00;1.25;;;9.20;99.90;;;;;;4264390;27;20057;-65
2023/12/14 02:21:25;;;;;;;4.47;1.10;;;9.20;99.90;;;;;;4264603;27;20074;-65
2023/12/14 02:23:29;;;;;;;3.22;0.70;;;9.30;99.90;;;;;;4246041;27;20073;-65
2023/12/14 02:25:31;;;;;;;4.07;0.98;;;9.30;99.90;;;;;;4264295;27;20042;-65
2023/12/14 02:27:33;;;;;;;4.07;1.58;;;9.30;99.90;;;;;;4264358;27;20081;-65
2023/12/14 02:29:35;;;;;;;2.55;0.95;;;9.30;99.90;;;;;;4264289;27;20047;-65
2023/12/14 02:31:37;;;;;;;4.57;0.70;;;9.30;99.90;;;;;;4246385;27;20090;-65
2023/12/14 02:33:40;;;;;;;4.10;1.02;;;9.30;99.90;;;;;;4264304;27;20043;-65
2023/12/14 02:35:42;;;;;;;3.72;1.25;;;9.40;99.90;;;;;;4264182;27;20104;-65
2023/12/14 02:37:44;;;;;;;2.33;0.95;;;9.40;99.90;;;;;;4264486;27;20099;-64
2023/12/14 02:39:48;;;;;;;2.35;1.10;;;9.40;99.90;;;;;;4264276;27;20524;-65
2023/12/14 02:41:50;;;;;;;3.13;0.98;;;9.30;99.90;;;;;;4264195;27;20078;-65
2023/12/14 02:43:52;;;;;;;2.47;0.80;;;9.40;99.90;;;;;;4246019;28;20494;-64
2023/12/14 02:45:59;;;;;;;1.70;0.80;;;9.40;99.90;;;;;;4264501;27;20059;-65
2023/12/14 02:48:01;;;;;;;3.33;0.80;;;9.50;99.90;;;;;;4263809;27;20054;-65
2023/12/14 02:50:04;;;;;;;2.05;0.60;;;9.50;99.90;;;;;;4264494;27;20489;-65
2023/12/14 02:52:06;;;;;;;2.65;0.80;;;9.50;99.90;;;;;;4264652;27;20055;-65
2023/12/14 02:54:08;;;;;;;3.42;1.00;;;9.50;99.90;;;;;;4264281;27;20493;-66
2023/12/14 02:56:11;;;;;;;3.33;0.90;;;9.40;99.90;;;;;;4264413;27;20062;-65
2023/12/14 02:58:14;;;;;;;2.22;0.68;;;9.60;99.90;;;;;;4264239;27;20047;-65
2023/12/14 03:00:16;;;;;;;4.53;1.08;;;9.50;99.90;;;;;;4264286;27;20042;-65
2023/12/14 03:02:18;;;;;;;0.90;0.60;;;9.50;99.90;;;;;;4264052;27;20147;-64
2023/12/14 03:04:20;;;;;;;2.50;1.02;;;9.50;99.90;;;;;;4245797;27;20051;-65
2023/12/14 03:06:22;;;;;;;2.95;0.70;;;9.50;99.90;;;;;;4264322;27;20133;-65
2023/12/14 03:08:24;;;;;;;2.15;0.80;;;9.50;99.90;;;;;;4264142;27;20043;-65
2023/12/14 03:10:26;;;;;;;1.65;0.73;;;9.50;99.90;;;;;;4264071;27;20122;-65
2023/12/14 03:12:30;;;;;;;1.38;0.65;;;9.50;99.90;;;;;;4265731;27;20076;-65
2023/12/14 03:14:33;;;;;;;1.73;0.50;;;9.50;99.90;;;;;;4267410;27;20073;-65
2023/12/14 03:16:35;;;;;;;1.10;0.80;;;9.40;99.90;;;;;;4267128;27;20110;-65
2023/12/14 03:18:37;;;;;;;1.45;0.68;;;9.50;99.90;;;;;;4267396;27;20034;-65
2023/12/14 03:20:40;;;;;;;1.25;0.70;;;9.60;99.90;;;;;;4267431;27;20047;-66
2023/12/14 03:22:41;;;;;;;1.13;0.57;;;9.50;99.90;;;;;;4267344;27;20043;-65
2023/12/14 03:24:44;;;;;;;1.65;0.70;;;9.50;99.90;;;;;;4267461;27;20486;-65
2023/12/14 03:26:46;;;;;;;2.45;0.70;;;9.50;99.90;;;;;;4267069;27;20173;-65
2023/12/14 03:28:49;;;;;;;1.27;0.50;;;9.40;99.90;;;;;;4267126;27;20070;-65
2023/12/14 03:30:51;;;;;;;2.17;0.80;;;9.50;99.90;;;;;;4266827;27;20038;-66
2023/12/14 03:32:53;;;;;;;1.55;0.60;;;9.40;99.90;;;;;;4267287;27;20043;-65
2023/12/14 03:34:56;;;;;;;2.22;0.60;;;9.40;99.90;;;;;;4248712;27;20074;-67
2023/12/14 03:36:58;;;;;;;0.70;0.60;;;9.40;99.90;;;;;;4248542;27;20055;-65
2023/12/14 03:39:00;;;;;;;2.88;0.85;;;9.40;99.90;;;;;;4267184;27;20404;-66
2023/12/14 03:41:02;;;;;;;1.50;0.50;;;9.40;99.90;;;;;;4249041;27;20043;-65
2023/12/14 03:43:05;;;;;;;2.60;0.73;;;9.40;99.90;;;;;;4267279;27;20558;-65
2023/12/14 03:45:09;;;;;;;1.55;0.60;;;9.50;99.90;;;;;;4267250;27;21953;-67
2023/12/14 03:47:11;;;;;;;1.15;0.75;;;9.40;99.90;;;;;;4266863;27;20049;-65
2023/12/14 03:49:13;;;;;;;3.67;0.90;;;9.40;99.90;;;;;;4267141;27;20468;-65
2023/12/14 03:51:18;;;;;;;4.10;1.10;;;9.40;99.90;;;;;;4266689;27;20050;-67
2023/12/14 03:53:20;;;;;;;1.35;0.77;;;9.40;99.90;;;;;;4266317;27;20042;-65
2023/12/14 03:55:23;;;;;;;1.67;0.80;;;9.50;99.90;;;;;;4266737;27;20570;-65
2023/12/14 03:57:24;;;;;;;3.13;0.80;;;9.50;99.90;;;;;;4266732;27;20050;-65
2023/12/14 03:59:28;;;;;;;3.03;1.13;;;9.50;99.90;;;;;;4266763;27;20069;-66
2023/12/14 04:01:36;;;;;;;3.05;1.30;;;9.40;99.90;;;;;;4266320;27;20421;-65
2023/12/14 04:03:38;;;;;;;2.88;1.13;;;9.40;99.90;;;;;;4266470;27;20121;-65
2023/12/14 04:05:40;;;;;;;4.72;1.20;;;9.40;99.90;;;;;;4266444;27;20043;-65
2023/12/14 04:07:43;;;;;;;5.78;1.70;;;9.50;99.90;;;;;;4266476;27;20043;-65
2023/12/14 04:09:45;;;;;;;3.47;1.52;;;9.40;99.90;;;;;;4266577;27;20047;-66
2023/12/14 04:11:47;;;;;;;5.95;1.77;;;9.40;99.90;;;;;;4266500;27;20046;-65
2023/12/14 04:13:50;;;;;;;3.53;1.60;;;9.30;99.90;;;;;;4266614;27;20405;-65
2023/12/14 04:15:52;;;;;;;5.90;1.75;;;9.40;99.90;;;;;;4266033;27;20046;-66
2023/12/14 04:17:56;;;;;;;4.30;1.83;;;9.40;99.90;;;;;;4266619;27;20046;-65
2023/12/14 04:19:58;;;;;;;7.38;1.90;;;9.40;99.90;;;;;;4266047;27;20049;-66
2023/12/14 04:22:00;;;;;;;5.28;2.20;;;9.40;99.90;;;;;;4266295;27;20489;-65
2023/12/14 04:24:02;;;;;;;6.53;2.25;;;9.50;99.90;;;;;;4265861;27;20070;-63
2023/12/14 04:26:05;;;;;;;6.28;1.85;;;9.50;99.90;;;;;;4266015;27;20073;-65
2023/12/14 04:28:07;;;;;;;7.28;1.80;;;9.40;99.90;;;;;;4247946;27;20077;-65
2023/12/14 04:30:10;;;;;;;8.80;2.50;;;9.50;99.90;;;;;;4248049;27;20051;-65
2023/12/14 04:32:13;;;;;;;8.65;2.55;;;9.60;99.90;;;;;;4266399;27;20047;-65
2023/12/14 04:34:18;;;;;;;11.57;2.70;;;9.50;99.90;;;;;;4266403;27;20051;-65
2023/12/14 04:36:21;;;;;;;7.13;2.30;;;9.50;99.90;;;;;;4265938;27;20051;-66
2023/12/14 04:38:23;;;;;;;12.73;3.08;;;9.40;99.90;;;;;;4266142;27;20089;-65
2023/12/14 04:40:25;;;;;;;9.18;3.13;;;9.50;99.90;;;;;;4266423;27;20111;-65
2023/12/14 04:42:27;;;;;;;5.70;2.53;;;9.50;99.90;;;;;;4266151;27;20050;-66
2023/12/14 04:44:29;;;;;;;9.02;3.33;;;9.50;99.90;;;;;;4247357;27;20046;-65
2023/12/14 04:46:31;;;;;;;6.15;2.20;;;9.60;99.90;;;;;;4265844;27;20074;-65
2023/12/14 04:48:33;;;;;;;9.48;3.05;;;9.70;99.90;;;;;;4265920;27;20496;-65
2023/12/14 04:50:37;;;;;;;10.70;2.80;;;9.50;99.90;;;;;;4265809;27;20050;-65
2023/12/14 04:52:41;;;;;;;7.75;2.75;;;9.60;99.90;;;;;;4265656;27;20470;-65
2023/12/14 04:54:43;;;;;;;10.43;2.90;;;9.60;99.90;;;;;;4266143;27;20046;-65
2023/12/14 04:56:46;;;;;;;10.98;3.08;;;9.60;99.90;;;;;;4266096;27;20046;-65
2023/12/14 04:58:48;;;;;;;16.60;3.83;;;9.50;99.90;;;;;;4265583;27;20043;-66
2023/12/14 05:00:50;;;;;;;9.57;2.83;;;9.50;99.90;;;;;;4265775;27;20092;-66
2023/12/14 05:02:52;;;;;;;13.63;3.72;;;9.60;99.90;;;;;;4265216;27;20095;-64
2023/12/14 05:04:54;;;;;;;8.55;2.67;;;9.70;99.90;;;;;;4265780;27;20056;-65
2023/12/14 05:06:57;;;;;;;11.13;3.17;;;9.70;99.90;;;;;;4265915;27;20050;-65
2023/12/14 05:09:02;;;;;;;17.10;3.38;;;9.60;99.90;;;;;;4265877;27;20070;-65
2023/12/14 05:11:05;;;;;;;14.35;3.00;;;9.60;99.90;;;;;;4247374;27;20055;-65
2023/12/14 05:13:07;;;;;;;10.98;3.45;;;9.60;99.90;;;;;;4265409;27;20122;-65
2023/12/14 05:15:11;;;;;;;14.88;3.80;;;9.50;99.90;;;;;;4265632;27;20382;-65
2023/12/14 05:17:13;;;;;;;14.00;3.43;;;9.50;99.90;;;;;;4266438;27;20046;-65
2023/12/14 05:19:15;;;;;;;15.00;3.65;;;9.60;99.90;;;;;;4266228;27;20377;-67
2023/12/14 05:21:18;;;;;;;16.58;3.92;;;9.60;99.90;;;;;;4266592;27;20045;-65
2023/12/14 05:23:21;;;;;;;10.98;3.00;;;9.60;99.90;;;;;;4265765;27;20043;-65
2023/12/14 05:25:23;;;;;;;13.00;3.72;;;9.60;99.90;;;;;;4265506;27;20391;-64
2023/12/14 05:27:25;;;;;;;13.23;3.15;;;9.60;99.90;;;;;;4265140;27;20280;-63
2023/12/14 05:29:27;;;;;;;16.08;3.55;;;9.60;99.90;;;;;;4265426;27;20051;-65
2023/12/14 05:31:29;;;;;;;17.25;3.75;;;9.50;99.90;;;;;;4265402;27;20095;-66
2023/12/14 05:33:33;;;;;;;13.10;3.70;;;9.50;99.90;;;;;;4246922;27;20062;-64
2023/12/14 05:35:36;;;;;;;16.50;3.58;;;9.50;99.90;;;;;;4264275;27;20057;-66
2023/12/14 05:37:39;;;;;;;15.55;3.70;;;9.50;99.90;;;;;;4264963;27;20039;-65
2023/12/14 05:39:43;;;;;;;14.00;3.50;;;9.50;99.90;;;;;;4265235;27;20047;-65
2023/12/14 05:41:45;;;;;;;14.40;3.55;;;9.60;99.90;;;;;;4264649;27;20122;-65
2023/12/14 05:43:47;;;;;;;9.20;3.00;;;9.60;99.90;;;;;;4265144;27;20087;-66
2023/12/14 05:45:49;;;;;;;14.77;3.90;;;9.60;99.90;;;;;;4264914;27;20043;-65
2023/12/14 05:47:51;;;;;;;13.48;3.40;;;9.60;99.90;;;;;;4265046;27;20042;-65
2023/12/14 05:49:53;;;;;;;16.17;3.95;;;9.50;99.90;;;;;;4265034;27;20085;-65
2023/12/14 05:51:58;;;;;;;11.40;3.55;;;9.50;99.90;;;;;;4264859;27;20047;-65
2023/12/14 05:54:00;;;;;;;;;;;9.50;99.90;;;;;;4265533;27;20054;-65
2023/12/14 05:56:04;;;;;;;15.73;4.15;;;9.50;99.90;;;;;;4264717;27;19926;-65
2023/12/14 05:58:07;;;;;;;18.00;5.00;;;9.40;99.90;;;;;;4264762;27;20050;-65
2023/12/14 06:00:10;;;;;;;14.88;4.35;;;9.50;99.90;;;;;;4264964;27;20070;-65
2023/12/14 06:02:12;;;;;;;15.75;4.95;;;9.40;99.90;;;;;;4264746;27;20125;-65
2023/12/14 06:04:14;;;;;;;15.75;4.32;;;9.50;99.90;;;;;;4265616;27;20042;-65
2023/12/14 06:06:16;;;;;;;18.95;4.38;;;9.50;99.90;;;;;;4264794;27;20270;-65
2023/12/14 06:08:18;;;;;;;14.02;3.85;;;9.40;99.90;;;;;;4265057;27;20046;-65
2023/12/14 06:10:21;;;;;;;16.20;4.18;;;9.50;99.90;;;;;;4246029;27;20054;-65
2023/12/14 06:12:25;;;;;;;16.77;3.42;;;9.40;99.90;;;;;;4264692;27;20043;-65
2023/12/14 06:14:27;;;;;;;13.55;3.60;;;9.40;99.90;;;;;;4264403;27;20054;-64
2023/12/14 06:16:29;;;;;;;14.93;3.42;;;9.50;99.90;;;;;;4264643;27;20047;-64
2023/12/14 06:18:31;;;;;;;16.23;4.18;;;9.60;99.90;;;;;;4264654;27;20481;-65
2023/12/14 06:20:33;;;;;;;14.70;3.40;;;9.60;99.90;;;;;;4264406;27;20378;-65
2023/12/14 06:22:36;;;;;;;17.00;3.85;;;9.50;99.90;;;;;;4264594;27;20049;-66
2023/12/14 06:24:38;;;;;;;18.88;3.60;;;9.50;99.90;;;;;;4264648;27;20039;-65
2023/12/14 06:26:41;;;;;;;11.82;3.22;;;9.50;99.90;;;;;;4264023;27;20054;-65
2023/12/14 06:28:45;;;;;;;19.35;3.88;;;9.50;99.90;;;;;;4264795;27;20063;-63
2023/12/14 06:30:47;;;;;;;11.23;3.58;;;9.60;99.90;;;;;;4264505;27;20062;-65
2023/12/14 06:32:49;;;;;;;10.93;3.17;;;9.70;99.90;;;;;;4264534;27;20038;-65
2023/12/14 06:34:52;;;;;;;9.90;2.78;;;9.60;99.90;;;;;;4264660;27;20134;-65
2023/12/14 06:36:54;;;;;;;12.23;3.92;;;9.70;99.90;;;;;;4264272;27;20137;-65
2023/12/14 06:38:57;;;;;;;12.07;3.50;;;9.60;99.90;;;;;;4264531;27;20073;-65
2023/12/14 06:40:59;;;;;;;11.55;3.20;;;9.70;99.90;;;;;;4264231;27;20042;-65
2023/12/14 06:43:03;;;;;;;11.85;3.38;;;9.60;99.90;;;;;;4264530;27;20050;-65
2023/12/14 06:45:10;;;;;;;16.05;3.28;;;9.60;99.90;;;;;;4264573;27;20126;-66
2023/12/14 06:47:13;;;;;;;10.50;2.78;;;9.70;99.90;;;;;;4267314;27;20050;-65
2023/12/14 06:49:16;;;;;;;12.48;3.08;;;9.50;99.90;;;;;;4268183;27;20096;-66
2023/12/14 06:51:18;;;;;;;11.98;2.72;;;9.50;99.90;;;;;;4267680;27;20070;-64
2023/12/14 06:53:20;;;;;;;13.90;3.28;;;9.60;99.90;;;;;;4267865;27;20049;-65
2023/12/14 06:55:22;;;;;;;14.30;3.08;;;9.50;99.90;;;;;;4267562;27;20065;-66
2023/12/14 06:57:24;;;;;;;11.25;3.13;;;9.50;99.90;;;;;;4267774;27;20046;-65
2023/12/14 06:59:28;;;;;;;10.85;3.13;;;9.50;99.90;;;;;;4267707;27;20038;-65
2023/12/14 07:01:32;;;;;;;12.45;3.22;;;9.50;99.90;;;;;;4267367;27;20042;-65
2023/12/14 07:03:34;;;;;;;9.15;3.00;;;9.60;99.90;;;;;;4267443;27;20532;-65
2023/12/14 07:05:36;;;;;;;11.25;3.20;;;9.50;99.90;;;;;;4267539;27;20419;-66
2023/12/14 07:07:38;;;;;;;12.70;2.60;;;9.60;99.90;;;;;;4267696;27;20505;-65
2023/12/14 07:09:40;;;;;;;16.58;3.03;;;9.60;99.90;;;;;;4267449;27;20055;-65
2023/12/14 07:11:42;;;;;;;7.25;2.03;;;9.50;99.90;;;;;;4267434;27;20050;-66
2023/12/14 07:13:45;;;;;;;13.00;3.55;;;9.50;99.90;;;;;;4267397;27;20070;-65
2023/12/14 07:15:48;;;;;;;13.77;3.35;;;9.50;99.90;;;;;;4267608;27;20054;-65
2023/12/14 07:17:51;;;;;;;12.55;3.15;;;9.50;99.90;;;;;;4267366;27;20448;-65
2023/12/14 07:19:53;;;;;;;13.38;3.63;;;9.40;99.90;;;;;;4267723;27;20092;-65
2023/12/14 07:21:59;;;;;;;16.15;2.78;;;9.40;99.90;;;;;;4267591;27;20400;-65
2023/12/14 07:24:01;;;;;;;7.43;2.58;;;9.40;99.90;;;;;;4266952;27;20481;-66
2023/12/14 07:26:04;;;;;;;13.13;3.03;;;9.40;99.90;;;;;;4267465;27;20107;-65
2023/12/14 07:28:09;;;;;;;10.38;3.13;;;9.40;99.90;;;;;;4267169;27;20046;-65
2023/12/14 07:30:11;;;;;;;10.32;2.72;;;9.40;99.90;;;;;;4266965;27;20079;-65
2023/12/14 07:32:14;;;;;;;12.90;2.63;;;9.50;99.90;;;;;;4248601;27;20118;-66
2023/12/14 07:34:18;;;;;;;9.63;2.53;;;9.50;99.90;;;;;;4267359;27;20046;-65
2023/12/14 07:36:22;;;;;;;9.45;2.65;;;9.50;99.90;;;;;;4266812;27;20055;-65
2023/12/14 07:38:24;;;;;;;14.48;3.90;;;9.50;99.90;;;;;;4248535;27;20147;-65
2023/12/14 07:40:26;;;;;;;8.38;2.92;;;9.50;99.90;;;;;;4267079;27;20043;-63
2023/12/14 07:42:28;;;;;;;11.00;3.35;;;9.50;99.90;;;;;;4248718;27;20047;-65
2023/12/14 07:44:30;;;;;;;11.27;3.75;;;9.60;99.90;;;;;;4267112;27;20046;-65
2023/12/14 07:46:32;;;;;;;11.70;3.22;;;9.70;99.90;;;;;;4266913;27;20087;-65
2023/12/14 07:48:35;;;;;;;9.27;2.90;;;9.70;99.90;;;;;;4248763;27;20074;-66
2023/12/14 07:50:38;;;;;;;11.30;2.85;;;9.80;99.90;;;;;;4266876;27;20047;-64
2023/12/14 07:52:40;;;;;;;12.68;3.20;;;9.90;99.90;;;;;;4266404;27;20118;-65
2023/12/14 07:54:42;;;;;;;13.52;3.58;;;9.90;99.90;;;;;;4266709;27;20043;-65
2023/12/14 07:56:45;;;;;;;12.52;2.80;;;9.80;99.90;;;;;;4266896;27;20047;-66
2023/12/14 07:58:47;;;;;;;8.75;3.00;;;9.80;99.90;;;;;;4265636;27;20141;-65
2023/12/14 08:00:49;;;;;;;7.05;2.65;;;9.80;99.90;;;;;;4266519;27;20117;-66
2023/12/14 08:02:51;;;;;;;9.98;3.28;;;9.70;99.90;;;;;;4266847;27;20046;-65
2023/12/14 08:04:53;;;;;;;7.28;2.88;;;9.60;99.90;;;;;;4266648;27;20042;-65
2023/12/14 08:06:56;;;;;;;7.53;2.72;;;9.70;99.90;;;;;;4266221;27;20481;-65
2023/12/14 08:08:58;;;;;;;12.93;2.95;;;9.80;99.90;;;;;;4266962;27;20936;-65
2023/12/14 08:11:00;;;;;;;9.73;2.53;;;9.80;99.90;;;;;;4266764;27;20046;-63
2023/12/14 08:13:02;;;;;;;7.75;2.78;;;9.70;99.90;;;;;;4266624;27;20510;-65
2023/12/14 08:15:05;;;;;;;11.23;3.05;;;9.60;99.90;;;;;;4248096;27;20084;-66
2023/12/14 08:17:07;;;;;;;9.50;3.75;;;9.70;99.90;;;;;;4266455;27;20534;-66
2023/12/14 08:19:10;;;;;;;11.40;4.30;;;9.60;99.90;;;;;;4266480;27;20045;-65
2023/12/14 08:21:12;;;;;;;11.95;4.18;;;9.70;99.90;;;;;;4266143;27;20050;-66
2023/12/14 08:23:15;;;;;;;12.15;3.30;;;9.50;99.90;;;;;;4266321;27;20043;-65
2023/12/14 08:25:17;;;;;;;10.52;3.70;;;9.50;99.90;;;;;;4266397;27;20065;-65
2023/12/14 08:27:19;;;;;;;9.35;3.83;;;9.60;99.90;;;;;;4266082;27;20042;-65
2023/12/14 08:29:22;;;;;;;13.70;4.20;;;9.60;99.90;;;;;;4266374;27;20464;-64
2023/12/14 08:31:25;;;;;;;11.65;3.80;;;9.70;99.90;;;;;;4266455;27;20047;-65
2023/12/14 08:33:27;;;;;;;13.25;3.95;;;9.50;99.90;;;;;;4266123;27;20049;-65
2023/12/14 08:35:29;;;;;;;17.65;4.38;;;9.40;99.90;;;;;;4265786;27;20054;-64
2023/12/14 08:37:31;;;;;;;15.40;3.78;;;9.40;99.90;;;;;;4266046;27;20082;-66
2023/12/14 08:39:35;;;;;;;12.63;3.67;;;9.20;99.90;;;;;;4266331;27;20046;-65
2023/12/14 08:41:37;;;;;;;11.48;4.00;;;9.20;99.90;;;;;;4266221;27;20513;-68
2023/12/14 08:43:39;;;;;;;13.13;3.70;;;9.20;99.90;;;;;;4265750;27;20528;-66
2023/12/14 08:45:41;;;;;;;16.30;4.05;;;9.30;99.90;;;;;;4265953;27;20142;-66
2023/12/14 08:47:43;;;;;;;10.45;3.53;;;9.20;99.90;;;;;;4266038;27;20476;-65
2023/12/14 08:49:50;;;;;;;16.70;3.70;;;9.20;99.90;;;;;;4265729;27;20046;-66
2023/12/14 08:51:52;;;;;;;13.88;3.15;;;9.10;99.90;;;;;;4266006;27;20087;-65
2023/12/14 08:53:54;;;;;;;11.63;3.75;;;9.30;99.90;;;;;;4266100;27;20055;-65
2023/12/14 08:55:57;;;;;;;14.02;3.88;;;9.20;99.90;;;;;;4265963;27;20539;-66
2023/12/14 08:58:00;;;;;;;12.23;3.50;;;9.20;99.90;;;;;;4265698;27;20497;-66
2023/12/14 09:00:06;;;;;;;11.73;3.38;;;9.30;99.90;;;;;;4265632;27;20053;-65
2023/12/14 09:02:08;;;;;;;9.70;3.42;;;9.20;99.90;;;;;;4265969;27;20065;-65
2023/12/14 09:04:10;;;;;;;14.35;3.45;;;9.30;99.90;;;;;;4265662;27;20043;-66
2023/12/14 09:06:14;;;;;;;13.77;3.60;;;9.30;99.90;;;;;;4265765;27;20091;-65
2023/12/14 09:08:16;;;;;;;12.40;3.70;;;9.50;99.90;;;;;;4265459;27;20446;-65
2023/12/14 09:10:18;;;;;;;13.93;3.47;;;9.40;99.90;;;;;;4265579;27;20062;-65
2023/12/14 09:12:21;;;;;;;14.25;3.67;;;9.50;99.90;;;;;;4247253;27;20057;-65
2023/12/14 09:14:23;;;;;;;20.08;4.05;;;9.50;99.90;;;;;;4265644;27;20418;-65
2023/12/14 09:16:25;;;;;;;12.18;3.53;;;9.40;99.90;;;;;;4265540;27;20472;-66
2023/12/14 09:18:27;;;;;;;12.63;3.40;;;9.40;99.90;;;;;;4265295;27;20485;-65
2023/12/14 09:20:31;;;;;;;8.82;3.42;;;9.40;99.90;;;;;;4265308;27;20074;-65
2023/12/14 09:22:33;;;;;;;11.43;3.50;;;9.40;99.90;;;;;;4265459;27;20047;-65
2023/12/14 09:24:35;;;;;;;10.80;3.70;;;9.40;99.90;;;;;;4265337;27;20493;-65
2023/12/14 09:26:37;;;;;;;10.90;3.53;;;9.40;99.90;;;;;;4265453;27;20478;-66
2023/12/14 09:28:42;;;;;;;12.02;3.30;;;9.60;99.90;;;;;;4265192;27;20077;-65
2023/12/14 09:30:44;;;;;;;8.38;3.20;;;9.60;99.90;;;;;;4265389;27;20038;-65
2023/12/14 09:32:46;;;;;;;9.18;3.00;;;9.60;99.90;;;;;;4265347;27;20051;-65
2023/12/14 09:34:49;;;;;;;13.05;3.33;;;9.50;99.90;;;;;;4264837;27;20047;-66
2023/12/14 09:36:52;;;;;;;12.98;3.15;;;9.60;99.90;;;;;;4264964;27;20055;-65
2023/12/14 09:38:58;;;;;;;12.88;3.47;;;9.70;99.90;;;;;;4265166;27;20042;-65
2023/12/14 09:41:00;;;;;;;13.95;3.80;;;9.80;99.90;;;;;;4264943;27;20465;-65
2023/12/14 09:43:03;;;;;;;9.43;3.05;;;9.70;99.90;;;;;;4265084;27;20047;-65
2023/12/14 09:45:11;;;;;;;9.32;2.65;;;9.80;99.90;;;;;;4265028;27;20125;-65
2023/12/14 09:47:13;;;;;;;10.25;2.88;;;9.90;99.90;;;;;;4265090;27;20043;-65
2023/12/14 09:49:17;;;;;;;13.25;3.70;;;9.90;99.90;;;;;;4264463;27;20046;-65
2023/12/14 09:51:19;;;;;;;13.77;2.75;;;9.90;99.90;;;;;;4265091;27;20485;-65
2023/12/14 09:53:21;;;;;;;6.63;2.25;;;9.70;99.90;;;;;;4265067;27;20104;-65
2023/12/14 09:55:24;;;;;;;11.40;2.95;;;9.70;99.90;;;;;;4264763;27;20125;-65
2023/12/14 09:57:26;;;;;;;6.80;2.25;;;9.60;99.90;;;;;;4264951;27;20051;-65
2023/12/14 09:59:28;;;;;;;6.82;2.38;;;9.50;99.90;;;;;;4264795;27;20039;-65
2023/12/14 10:01:31;;;;;;;9.75;2.80;;;9.40;99.90;;;;;;4264907;27;20051;-65
2023/12/14 10:03:34;;;;;;;9.82;2.65;;;9.30;99.90;;;;;;4252212;27;20434;-65
2023/12/14 10:05:36;;;;;;;7.32;2.53;;;9.40;99.90;;;;;;4247736;27;20100;-65
2023/12/14 10:07:42;;;;;;;12.20;2.80;;;10.10;99.90;;;;;;4247561;27;20509;-67
2023/12/14 10:09:44;;;;;;;9.70;2.85;;;10.50;99.90;;;;;;4247936;27;20466;-67
2023/12/14 10:11:46;;;;;;;9.63;2.80;;;10.60;99.90;;;;;;4247956;27;20047;-66
2023/12/14 10:13:49;;;;;;;13.00;2.67;;;10.60;99.90;;;;;;4247631;27;20064;-66
2023/12/14 10:15:51;;;;;;;15.93;3.08;;;10.60;99.90;;;;;;4247554;27;20047;-66
2023/12/14 10:17:57;;;;;;;14.85;2.78;;;10.40;99.90;;;;;;4247116;27;20099;-66
2023/12/14 10:20:03;;;;;;;14.57;3.25;;;10.20;99.90;;;;;;4253063;27;20070;-67
2023/12/14 10:22:08;;;;;;;15.05;3.53;;;10.40;99.90;;;;;;4264324;27;20071;-64
2023/12/14 10:24:11;;;;;;;9.02;3.08;;;10.50;99.90;;;;;;4264811;27;20121;-65
2023/12/14 10:26:14;;;;;;;9.50;3.65;;;10.50;99.90;;;;;;4264832;27;20549;-64
2023/12/14 10:28:17;;;;;;;11.55;3.13;;;10.60;99.90;;;;;;4245967;28;20047;-64
2023/12/14 10:30:20;;;;;;;8.18;3.22;;;10.60;99.90;;;;;;4264754;27;20439;-63
2023/12/14 10:32:23;;;;;;;8.80;2.75;;;10.50;99.90;;;;;;4264572;27;20107;-64
2023/12/14 10:34:27;;;;;;;6.95;2.47;;;10.50;99.90;;;;;;4264507;27;20050;-64
2023/12/14 10:36:30;;;;;;;13.00;3.35;;;10.40;99.90;;;;;;4264674;27;20070;-64
2023/12/14 10:38:34;;;;;;;12.43;3.35;;;10.30;99.90;;;;;;4264874;27;20484;-64
2023/12/14 10:40:40;;;;;;;15.00;3.30;;;10.20;99.90;;;;;;4264390;27;20053;-64
2023/12/14 10:42:43;;;;;;;14.82;2.92;;;10.10;99.90;;;;;;4264634;27;20050;-63